sensor_id;sensor_type;location;lat;lon;timestamp;P1;durP1;ratioP1;P2;durP2;ratioP2
450;SDS011;212;48.748;9.174;2022-07-22T00:00:00;7.63;;;7.23;;
450;SDS011;212;48.748;9.174;2022-07-22T00:02:29;7.27;;;6.87;;
450;SDS011;212;48.748;9.174;2022-07-22T00:04:56;7.87;;;7.47;;
450;SDS011;212;48.748;9.174;2022-07-22T00:07:23;7.83;;;7.43;;
450;SDS011;212;48.748;9.174;2022-07-22T00:09:50;7.20;;;6.80;;
450;SDS011;212;48.748;9.174;2022-07-22T00:12:17;7.87;;;7.47;;
450;SDS011;212;48.748;9.174;2022-07-22T00:14:44;7.67;;;7.27;;
450;SDS011;212;48.748;9.174;2022-07-22T00:17:11;6.83;;;6.43;;
450;SDS011;212;48.748;9.174;2022-07-22T00:19:37;7.90;;;7.50;;
450;SDS011;212;48.748;9.174;2022-07-22T00:22:04;7.70;;;7.30;;
450;SDS011;212;48.748;9.174;2022-07-22T00:24:31;7.10;;;6.70;;
450;SDS011;212;48.748;9.174;2022-07-22T00:26:57;7.17;;;6.77;;
450;SDS011;212;48.748;9.174;2022-07-22T00:29:25;9.53;;;7.53;;
450;SDS011;212;48.748;9.174;2022-07-22T00:31:52;7.30;;;6.73;;
450;SDS011;212;48.748;9.174;2022-07-22T00:34:19;7.70;;;7.30;;
450;SDS011;212;48.748;9.174;2022-07-22T00:36:45;7.17;;;6.77;;
450;SDS011;212;48.748;9.174;2022-07-22T00:39:12;7.43;;;7.03;;
450;SDS011;212;48.748;9.174;2022-07-22T00:41:40;7.60;;;7.20;;
450;SDS011;212;48.748;9.174;2022-07-22T00:44:07;8.80;;;6.60;;
450;SDS011;212;48.748;9.174;2022-07-22T00:46:36;8.47;;;6.73;;
450;SDS011;212;48.748;9.174;2022-07-22T00:49:04;7.53;;;7.10;;
450;SDS011;212;48.748;9.174;2022-07-22T00:51:32;7.90;;;7.50;;
450;SDS011;212;48.748;9.174;2022-07-22T00:54:00;7.70;;;7.30;;
450;SDS011;212;48.748;9.174;2022-07-22T00:56:27;7.60;;;7.20;;
450;SDS011;212;48.748;9.174;2022-07-22T00:58:55;7.33;;;6.93;;
450;SDS011;212;48.748;9.174;2022-07-22T01:01:24;7.43;;;7.03;;
450;SDS011;212;48.748;9.174;2022-07-22T01:03:52;7.10;;;6.70;;
450;SDS011;212;48.748;9.174;2022-07-22T01:06:19;8.63;;;8.13;;
450;SDS011;212;48.748;9.174;2022-07-22T01:08:46;7.47;;;7.07;;
450;SDS011;212;48.748;9.174;2022-07-22T01:11:13;7.40;;;7.00;;
450;SDS011;212;48.748;9.174;2022-07-22T01:13:42;7.80;;;7.40;;
450;SDS011;212;48.748;9.174;2022-07-22T01:16:10;8.60;;;8.13;;
450;SDS011;212;48.748;9.174;2022-07-22T01:18:38;8.20;;;7.80;;
450;SDS011;212;48.748;9.174;2022-07-22T01:21:06;7.00;;;6.60;;
450;SDS011;212;48.748;9.174;2022-07-22T01:23:35;9.10;;;8.47;;
450;SDS011;212;48.748;9.174;2022-07-22T01:26:01;10.43;;;7.37;;
450;SDS011;212;48.748;9.174;2022-07-22T01:28:29;7.70;;;7.30;;
450;SDS011;212;48.748;9.174;2022-07-22T01:30:56;9.20;;;8.70;;
450;SDS011;212;48.748;9.174;2022-07-22T01:33:22;7.10;;;6.70;;
450;SDS011;212;48.748;9.174;2022-07-22T01:35:50;8.30;;;7.90;;
450;SDS011;212;48.748;9.174;2022-07-22T01:38:18;8.50;;;8.00;;
450;SDS011;212;48.748;9.174;2022-07-22T01:40:45;8.03;;;7.63;;
450;SDS011;212;48.748;9.174;2022-07-22T01:43:12;8.43;;;7.97;;
450;SDS011;212;48.748;9.174;2022-07-22T01:45:42;8.50;;;8.07;;
450;SDS011;212;48.748;9.174;2022-07-22T01:48:09;9.17;;;8.67;;
450;SDS011;212;48.748;9.174;2022-07-22T01:50:36;8.37;;;7.93;;
450;SDS011;212;48.748;9.174;2022-07-22T01:53:03;9.93;;;8.27;;
450;SDS011;212;48.748;9.174;2022-07-22T01:55:31;10.37;;;9.30;;
450;SDS011;212;48.748;9.174;2022-07-22T01:57:58;8.60;;;8.10;;
450;SDS011;212;48.748;9.174;2022-07-22T02:00:24;8.50;;;8.00;;
450;SDS011;212;48.748;9.174;2022-07-22T02:02:51;9.17;;;8.67;;
450;SDS011;212;48.748;9.174;2022-07-22T02:05:18;7.53;;;7.13;;
450;SDS011;212;48.748;9.174;2022-07-22T02:07:45;8.10;;;7.70;;
450;SDS011;212;48.748;9.174;2022-07-22T02:10:11;8.70;;;8.20;;
450;SDS011;212;48.748;9.174;2022-07-22T02:12:40;8.70;;;8.20;;
450;SDS011;212;48.748;9.174;2022-07-22T02:15:07;9.30;;;8.80;;
450;SDS011;212;48.748;9.174;2022-07-22T02:17:34;9.03;;;8.53;;
450;SDS011;212;48.748;9.174;2022-07-22T02:20:01;8.57;;;8.10;;
450;SDS011;212;48.748;9.174;2022-07-22T02:22:29;9.33;;;8.83;;
450;SDS011;212;48.748;9.174;2022-07-22T02:24:56;8.80;;;8.30;;
450;SDS011;212;48.748;9.174;2022-07-22T02:27:22;10.03;;;9.53;;
450;SDS011;212;48.748;9.174;2022-07-22T02:29:50;10.03;;;9.53;;
450;SDS011;212;48.748;9.174;2022-07-22T02:32:17;10.40;;;9.87;;
450;SDS011;212;48.748;9.174;2022-07-22T02:34:43;10.30;;;9.77;;
450;SDS011;212;48.748;9.174;2022-07-22T02:37:10;9.90;;;9.40;;
450;SDS011;212;48.748;9.174;2022-07-22T02:39:37;9.53;;;9.03;;
450;SDS011;212;48.748;9.174;2022-07-22T02:42:04;9.40;;;8.90;;
450;SDS011;212;48.748;9.174;2022-07-22T02:44:30;9.23;;;8.73;;
450;SDS011;212;48.748;9.174;2022-07-22T02:46:58;10.00;;;9.47;;
450;SDS011;212;48.748;9.174;2022-07-22T02:49:25;9.83;;;9.33;;
450;SDS011;212;48.748;9.174;2022-07-22T02:51:52;10.87;;;10.27;;
450;SDS011;212;48.748;9.174;2022-07-22T02:54:18;10.40;;;9.90;;
450;SDS011;212;48.748;9.174;2022-07-22T02:56:45;10.37;;;9.83;;
450;SDS011;212;48.748;9.174;2022-07-22T02:59:12;11.53;;;10.93;;
450;SDS011;212;48.748;9.174;2022-07-22T03:01:38;11.00;;;10.40;;
450;SDS011;212;48.748;9.174;2022-07-22T03:04:06;11.47;;;10.87;;
450;SDS011;212;48.748;9.174;2022-07-22T03:06:33;11.20;;;10.60;;
450;SDS011;212;48.748;9.174;2022-07-22T03:09:00;10.63;;;10.03;;
450;SDS011;212;48.748;9.174;2022-07-22T03:11:27;11.40;;;10.80;;
450;SDS011;212;48.748;9.174;2022-07-22T03:13:53;13.60;;;10.80;;
450;SDS011;212;48.748;9.174;2022-07-22T03:16:20;11.00;;;10.40;;
450;SDS011;212;48.748;9.174;2022-07-22T03:18:47;11.40;;;10.80;;
450;SDS011;212;48.748;9.174;2022-07-22T03:21:15;12.17;;;11.57;;
450;SDS011;212;48.748;9.174;2022-07-22T03:23:41;11.57;;;10.60;;
450;SDS011;212;48.748;9.174;2022-07-22T03:26:08;10.77;;;10.17;;
450;SDS011;212;48.748;9.174;2022-07-22T03:28:34;11.10;;;10.50;;
450;SDS011;212;48.748;9.174;2022-07-22T03:31:01;11.60;;;11.00;;
450;SDS011;212;48.748;9.174;2022-07-22T03:33:28;11.97;;;11.37;;
450;SDS011;212;48.748;9.174;2022-07-22T03:35:55;12.57;;;11.93;;
450;SDS011;212;48.748;9.174;2022-07-22T03:38:23;12.27;;;11.67;;
450;SDS011;212;48.748;9.174;2022-07-22T03:40:49;12.20;;;11.60;;
450;SDS011;212;48.748;9.174;2022-07-22T03:43:16;12.00;;;11.40;;
450;SDS011;212;48.748;9.174;2022-07-22T03:45:43;11.03;;;10.43;;
450;SDS011;212;48.748;9.174;2022-07-22T03:48:10;11.87;;;11.33;;
450;SDS011;212;48.748;9.174;2022-07-22T03:50:36;11.30;;;10.70;;
450;SDS011;212;48.748;9.174;2022-07-22T03:53:03;13.60;;;12.90;;
450;SDS011;212;48.748;9.174;2022-07-22T03:55:31;13.33;;;12.63;;
450;SDS011;212;48.748;9.174;2022-07-22T03:57:58;13.90;;;13.20;;
450;SDS011;212;48.748;9.174;2022-07-22T04:00:24;12.67;;;12.00;;
450;SDS011;212;48.748;9.174;2022-07-22T04:02:51;13.50;;;12.80;;
450;SDS011;212;48.748;9.174;2022-07-22T04:05:18;12.10;;;11.50;;
450;SDS011;212;48.748;9.174;2022-07-22T04:07:44;12.70;;;12.00;;
450;SDS011;212;48.748;9.174;2022-07-22T04:10:11;13.23;;;12.53;;
450;SDS011;212;48.748;9.174;2022-07-22T04:12:39;12.90;;;12.20;;
450;SDS011;212;48.748;9.174;2022-07-22T04:15:07;14.37;;;12.43;;
450;SDS011;212;48.748;9.174;2022-07-22T04:17:34;13.60;;;12.00;;
450;SDS011;212;48.748;9.174;2022-07-22T04:20:02;11.90;;;11.30;;
450;SDS011;212;48.748;9.174;2022-07-22T04:22:30;12.97;;;12.27;;
450;SDS011;212;48.748;9.174;2022-07-22T04:24:57;12.53;;;11.90;;
450;SDS011;212;48.748;9.174;2022-07-22T04:27:23;13.80;;;12.77;;
450;SDS011;212;48.748;9.174;2022-07-22T04:29:51;11.73;;;11.13;;
450;SDS011;212;48.748;9.174;2022-07-22T04:32:18;12.40;;;11.80;;
450;SDS011;212;48.748;9.174;2022-07-22T04:34:45;12.67;;;12.00;;
450;SDS011;212;48.748;9.174;2022-07-22T04:37:11;12.63;;;11.97;;
450;SDS011;212;48.748;9.174;2022-07-22T04:39:38;11.73;;;11.13;;
450;SDS011;212;48.748;9.174;2022-07-22T04:42:05;10.33;;;9.83;;
450;SDS011;212;48.748;9.174;2022-07-22T04:44:32;12.67;;;12.00;;
450;SDS011;212;48.748;9.174;2022-07-22T04:47:00;12.63;;;11.30;;
450;SDS011;212;48.748;9.174;2022-07-22T04:49:26;12.10;;;11.50;;
450;SDS011;212;48.748;9.174;2022-07-22T04:51:53;13.37;;;12.67;;
450;SDS011;212;48.748;9.174;2022-07-22T04:54:20;12.20;;;11.60;;
450;SDS011;212;48.748;9.174;2022-07-22T04:56:46;11.10;;;10.20;;
450;SDS011;212;48.748;9.174;2022-07-22T04:59:13;13.60;;;12.90;;
450;SDS011;212;48.748;9.174;2022-07-22T05:01:39;13.13;;;12.43;;
450;SDS011;212;48.748;9.174;2022-07-22T05:04:07;13.27;;;12.57;;
450;SDS011;212;48.748;9.174;2022-07-22T05:06:34;12.40;;;11.77;;
450;SDS011;212;48.748;9.174;2022-07-22T05:09:01;11.53;;;10.93;;
450;SDS011;212;48.748;9.174;2022-07-22T05:11:28;12.03;;;11.40;;
450;SDS011;212;48.748;9.174;2022-07-22T05:13:55;12.13;;;11.50;;
450;SDS011;212;48.748;9.174;2022-07-22T05:16:22;12.40;;;11.80;;
450;SDS011;212;48.748;9.174;2022-07-22T05:18:48;11.20;;;10.60;;
450;SDS011;212;48.748;9.174;2022-07-22T05:21:16;12.93;;;12.23;;
450;SDS011;212;48.748;9.174;2022-07-22T05:23:43;12.80;;;12.10;;
450;SDS011;212;48.748;9.174;2022-07-22T05:26:09;11.70;;;11.10;;
450;SDS011;212;48.748;9.174;2022-07-22T05:28:36;14.57;;;12.70;;
450;SDS011;212;48.748;9.174;2022-07-22T05:31:03;13.60;;;12.90;;
450;SDS011;212;48.748;9.174;2022-07-22T05:33:30;13.23;;;12.53;;
450;SDS011;212;48.748;9.174;2022-07-22T05:35:56;13.23;;;12.53;;
450;SDS011;212;48.748;9.174;2022-07-22T05:38:24;14.17;;;11.90;;
450;SDS011;212;48.748;9.174;2022-07-22T05:40:51;11.63;;;11.03;;
450;SDS011;212;48.748;9.174;2022-07-22T05:43:18;13.13;;;12.43;;
450;SDS011;212;48.748;9.174;2022-07-22T05:45:45;13.20;;;12.50;;
450;SDS011;212;48.748;9.174;2022-07-22T05:48:12;12.90;;;12.20;;
450;SDS011;212;48.748;9.174;2022-07-22T05:50:38;13.60;;;12.90;;
450;SDS011;212;48.748;9.174;2022-07-22T05:53:05;12.90;;;12.20;;
450;SDS011;212;48.748;9.174;2022-07-22T05:55:33;13.20;;;12.50;;
450;SDS011;212;48.748;9.174;2022-07-22T05:57:59;12.10;;;11.50;;
450;SDS011;212;48.748;9.174;2022-07-22T06:00:26;13.57;;;12.87;;
450;SDS011;212;48.748;9.174;2022-07-22T06:02:53;13.63;;;12.93;;
450;SDS011;212;48.748;9.174;2022-07-22T06:05:19;13.00;;;11.50;;
450;SDS011;212;48.748;9.174;2022-07-22T06:07:46;13.20;;;12.43;;
450;SDS011;212;48.748;9.174;2022-07-22T06:10:13;13.47;;;12.77;;
450;SDS011;212;48.748;9.174;2022-07-22T06:12:41;12.03;;;11.43;;
450;SDS011;212;48.748;9.174;2022-07-22T06:15:08;13.53;;;12.83;;
450;SDS011;212;48.748;9.174;2022-07-22T06:17:35;13.50;;;12.80;;
450;SDS011;212;48.748;9.174;2022-07-22T06:20:02;12.73;;;12.03;;
450;SDS011;212;48.748;9.174;2022-07-22T06:22:29;13.87;;;13.17;;
450;SDS011;212;48.748;9.174;2022-07-22T06:24:56;13.30;;;12.60;;
450;SDS011;212;48.748;9.174;2022-07-22T06:27:23;12.57;;;11.50;;
450;SDS011;212;48.748;9.174;2022-07-22T06:29:50;12.97;;;12.27;;
450;SDS011;212;48.748;9.174;2022-07-22T06:32:17;12.73;;;11.50;;
450;SDS011;212;48.748;9.174;2022-07-22T06:34:44;11.50;;;10.90;;
450;SDS011;212;48.748;9.174;2022-07-22T06:37:11;13.07;;;11.13;;
450;SDS011;212;48.748;9.174;2022-07-22T06:39:37;13.00;;;11.50;;
450;SDS011;212;48.748;9.174;2022-07-22T06:42:04;13.03;;;12.33;;
450;SDS011;212;48.748;9.174;2022-07-22T06:44:31;13.10;;;12.40;;
450;SDS011;212;48.748;9.174;2022-07-22T06:46:59;12.40;;;11.77;;
450;SDS011;212;48.748;9.174;2022-07-22T06:49:25;12.23;;;11.67;;
450;SDS011;212;48.748;9.174;2022-07-22T06:51:52;11.60;;;11.00;;
450;SDS011;212;48.748;9.174;2022-07-22T06:54:19;11.30;;;10.70;;
450;SDS011;212;48.748;9.174;2022-07-22T06:56:46;11.17;;;10.57;;
450;SDS011;212;48.748;9.174;2022-07-22T06:59:13;11.00;;;10.40;;
450;SDS011;212;48.748;9.174;2022-07-22T07:01:39;10.23;;;9.73;;
450;SDS011;212;48.748;9.174;2022-07-22T07:04:07;11.23;;;10.63;;
450;SDS011;212;48.748;9.174;2022-07-22T07:06:34;15.93;;;11.50;;
450;SDS011;212;48.748;9.174;2022-07-22T07:09:00;9.90;;;9.40;;
450;SDS011;212;48.748;9.174;2022-07-22T07:11:27;9.57;;;9.07;;
450;SDS011;212;48.748;9.174;2022-07-22T07:13:54;10.70;;;10.10;;
450;SDS011;212;48.748;9.174;2022-07-22T07:16:21;11.27;;;10.67;;
450;SDS011;212;48.748;9.174;2022-07-22T07:18:47;9.80;;;9.30;;
450;SDS011;212;48.748;9.174;2022-07-22T07:21:15;9.00;;;8.50;;
450;SDS011;212;48.748;9.174;2022-07-22T07:23:42;9.37;;;8.87;;
450;SDS011;212;48.748;9.174;2022-07-22T07:26:09;10.03;;;9.53;;
450;SDS011;212;48.748;9.174;2022-07-22T07:28:36;9.20;;;8.70;;
450;SDS011;212;48.748;9.174;2022-07-22T07:31:02;9.83;;;9.33;;
450;SDS011;212;48.748;9.174;2022-07-22T07:33:29;9.33;;;8.83;;
450;SDS011;212;48.748;9.174;2022-07-22T07:35:56;9.83;;;9.33;;
450;SDS011;212;48.748;9.174;2022-07-22T07:38:24;9.87;;;9.40;;
450;SDS011;212;48.748;9.174;2022-07-22T07:40:50;11.17;;;10.57;;
450;SDS011;212;48.748;9.174;2022-07-22T07:43:17;12.53;;;10.30;;
450;SDS011;212;48.748;9.174;2022-07-22T07:45:45;11.60;;;11.00;;
450;SDS011;212;48.748;9.174;2022-07-22T07:48:12;11.90;;;11.30;;
450;SDS011;212;48.748;9.174;2022-07-22T07:50:38;10.17;;;9.67;;
450;SDS011;212;48.748;9.174;2022-07-22T07:53:05;10.13;;;9.63;;
450;SDS011;212;48.748;9.174;2022-07-22T07:55:33;10.90;;;10.30;;
450;SDS011;212;48.748;9.174;2022-07-22T07:58:02;10.93;;;10.33;;
450;SDS011;212;48.748;9.174;2022-07-22T08:00:29;9.40;;;8.90;;
450;SDS011;212;48.748;9.174;2022-07-22T08:02:57;11.13;;;10.53;;
450;SDS011;212;48.748;9.174;2022-07-22T08:05:24;10.73;;;10.13;;
450;SDS011;212;48.748;9.174;2022-07-22T08:07:51;12.17;;;11.57;;
450;SDS011;212;48.748;9.174;2022-07-22T08:10:17;12.03;;;11.43;;
450;SDS011;212;48.748;9.174;2022-07-22T08:12:46;11.43;;;10.83;;
450;SDS011;212;48.748;9.174;2022-07-22T08:15:14;10.17;;;9.67;;
450;SDS011;212;48.748;9.174;2022-07-22T08:17:40;11.87;;;11.27;;
450;SDS011;212;48.748;9.174;2022-07-22T08:20:08;13.50;;;10.63;;
450;SDS011;212;48.748;9.174;2022-07-22T08:22:34;10.53;;;9.97;;
450;SDS011;212;48.748;9.174;2022-07-22T08:25:01;9.83;;;9.33;;
450;SDS011;212;48.748;9.174;2022-07-22T08:27:28;9.77;;;9.27;;
450;SDS011;212;48.748;9.174;2022-07-22T08:29:57;9.10;;;8.60;;
450;SDS011;212;48.748;9.174;2022-07-22T08:32:23;10.10;;;8.90;;
450;SDS011;212;48.748;9.174;2022-07-22T08:34:50;8.80;;;8.30;;
450;SDS011;212;48.748;9.174;2022-07-22T08:37:17;10.60;;;10.00;;
450;SDS011;212;48.748;9.174;2022-07-22T08:39:44;11.10;;;10.50;;
450;SDS011;212;48.748;9.174;2022-07-22T08:42:11;10.27;;;9.77;;
450;SDS011;212;48.748;9.174;2022-07-22T08:44:38;9.97;;;9.47;;
450;SDS011;212;48.748;9.174;2022-07-22T08:47:07;11.10;;;10.50;;
450;SDS011;212;48.748;9.174;2022-07-22T08:49:33;9.00;;;8.50;;
450;SDS011;212;48.748;9.174;2022-07-22T08:52:00;8.87;;;8.37;;
450;SDS011;212;48.748;9.174;2022-07-22T08:54:27;8.53;;;8.03;;
450;SDS011;212;48.748;9.174;2022-07-22T08:56:54;10.10;;;9.60;;
450;SDS011;212;48.748;9.174;2022-07-22T08:59:20;8.90;;;8.40;;
450;SDS011;212;48.748;9.174;2022-07-22T09:02:04;9.57;;;9.07;;
450;SDS011;212;48.748;9.174;2022-07-22T09:04:37;8.47;;;8.00;;
450;SDS011;212;48.748;9.174;2022-07-22T09:07:22;9.40;;;8.90;;
450;SDS011;212;48.748;9.174;2022-07-22T09:09:50;8.80;;;8.30;;
450;SDS011;212;48.748;9.174;2022-07-22T09:12:17;9.17;;;8.67;;
450;SDS011;212;48.748;9.174;2022-07-22T09:14:45;8.67;;;8.17;;
450;SDS011;212;48.748;9.174;2022-07-22T09:17:23;8.60;;;8.10;;
450;SDS011;212;48.748;9.174;2022-07-22T09:19:51;8.43;;;7.97;;
450;SDS011;212;48.748;9.174;2022-07-22T09:22:31;8.17;;;7.77;;
450;SDS011;212;48.748;9.174;2022-07-22T09:27:43;8.00;;;7.60;;
450;SDS011;212;48.748;9.174;2022-07-22T09:30:11;7.63;;;7.23;;
450;SDS011;212;48.748;9.174;2022-07-22T09:32:40;7.73;;;7.33;;
450;SDS011;212;48.748;9.174;2022-07-22T09:35:09;7.37;;;6.97;;
450;SDS011;212;48.748;9.174;2022-07-22T09:37:36;7.43;;;7.03;;
450;SDS011;212;48.748;9.174;2022-07-22T09:40:12;7.00;;;6.60;;
450;SDS011;212;48.748;9.174;2022-07-22T09:42:43;6.53;;;6.13;;
450;SDS011;212;48.748;9.174;2022-07-22T09:45:11;6.90;;;6.50;;
450;SDS011;212;48.748;9.174;2022-07-22T09:47:39;6.10;;;5.80;;
450;SDS011;212;48.748;9.174;2022-07-22T09:50:13;6.50;;;6.10;;
450;SDS011;212;48.748;9.174;2022-07-22T09:52:42;6.90;;;6.50;;
450;SDS011;212;48.748;9.174;2022-07-22T09:55:09;7.07;;;6.67;;
450;SDS011;212;48.748;9.174;2022-07-22T09:57:35;7.27;;;6.87;;
450;SDS011;212;48.748;9.174;2022-07-22T10:00:03;7.37;;;6.70;;
450;SDS011;212;48.748;9.174;2022-07-22T10:02:33;7.10;;;6.70;;
450;SDS011;212;48.748;9.174;2022-07-22T10:05:03;7.60;;;7.20;;
450;SDS011;212;48.748;9.174;2022-07-22T10:07:31;7.13;;;6.73;;
450;SDS011;212;48.748;9.174;2022-07-22T10:09:58;7.43;;;7.03;;
450;SDS011;212;48.748;9.174;2022-07-22T10:12:26;7.17;;;6.77;;
450;SDS011;212;48.748;9.174;2022-07-22T10:14:53;6.23;;;5.90;;
450;SDS011;212;48.748;9.174;2022-07-22T10:17:20;7.20;;;6.80;;
450;SDS011;212;48.748;9.174;2022-07-22T10:19:47;7.20;;;6.80;;
450;SDS011;212;48.748;9.174;2022-07-22T10:25:18;9.77;;;9.27;;
450;SDS011;212;48.748;9.174;2022-07-22T10:27:47;9.07;;;8.57;;
450;SDS011;212;48.748;9.174;2022-07-22T10:30:15;7.37;;;6.97;;
450;SDS011;212;48.748;9.174;2022-07-22T10:32:42;7.87;;;7.47;;
450;SDS011;212;48.748;9.174;2022-07-22T10:35:20;7.67;;;7.27;;
450;SDS011;212;48.748;9.174;2022-07-22T10:37:49;7.73;;;7.33;;
450;SDS011;212;48.748;9.174;2022-07-22T10:40:21;8.80;;;7.90;;
450;SDS011;212;48.748;9.174;2022-07-22T10:45:36;6.67;;;6.27;;
450;SDS011;212;48.748;9.174;2022-07-22T10:48:04;8.50;;;7.13;;
450;SDS011;212;48.748;9.174;2022-07-22T10:50:41;8.10;;;7.70;;
450;SDS011;212;48.748;9.174;2022-07-22T10:53:12;7.40;;;7.00;;
450;SDS011;212;48.748;9.174;2022-07-22T10:58:40;7.70;;;7.30;;
450;SDS011;212;48.748;9.174;2022-07-22T11:01:09;8.13;;;7.73;;
450;SDS011;212;48.748;9.174;2022-07-22T11:03:37;8.03;;;7.30;;
450;SDS011;212;48.748;9.174;2022-07-22T11:06:16;7.07;;;6.60;;
450;SDS011;212;48.748;9.174;2022-07-22T11:08:50;7.73;;;7.33;;
450;SDS011;212;48.748;9.174;2022-07-22T11:11:18;6.73;;;6.37;;
450;SDS011;212;48.748;9.174;2022-07-22T11:13:56;7.03;;;6.63;;
450;SDS011;212;48.748;9.174;2022-07-22T11:16:23;7.33;;;6.93;;
450;SDS011;212;48.748;9.174;2022-07-22T11:18:51;7.10;;;6.70;;
450;SDS011;212;48.748;9.174;2022-07-22T11:21:24;6.57;;;6.17;;
450;SDS011;212;48.748;9.174;2022-07-22T11:23:54;6.70;;;6.30;;
450;SDS011;212;48.748;9.174;2022-07-22T11:26:24;7.23;;;6.83;;
450;SDS011;212;48.748;9.174;2022-07-22T11:28:57;6.67;;;6.27;;
450;SDS011;212;48.748;9.174;2022-07-22T11:31:25;7.73;;;7.33;;
450;SDS011;212;48.748;9.174;2022-07-22T11:33:51;7.70;;;7.30;;
450;SDS011;212;48.748;9.174;2022-07-22T11:36:31;7.20;;;6.80;;
450;SDS011;212;48.748;9.174;2022-07-22T11:39:00;6.90;;;6.50;;
450;SDS011;212;48.748;9.174;2022-07-22T11:41:28;8.00;;;7.60;;
450;SDS011;212;48.748;9.174;2022-07-22T11:43:56;7.73;;;7.33;;
450;SDS011;212;48.748;9.174;2022-07-22T11:46:24;7.37;;;6.97;;
450;SDS011;212;48.748;9.174;2022-07-22T11:48:51;9.40;;;7.80;;
450;SDS011;212;48.748;9.174;2022-07-22T11:51:18;7.00;;;6.60;;
450;SDS011;212;48.748;9.174;2022-07-22T11:53:45;6.97;;;6.57;;
450;SDS011;212;48.748;9.174;2022-07-22T11:56:13;6.60;;;6.20;;
450;SDS011;212;48.748;9.174;2022-07-22T11:58:41;6.87;;;6.47;;
450;SDS011;212;48.748;9.174;2022-07-22T12:01:09;7.10;;;6.70;;
450;SDS011;212;48.748;9.174;2022-07-22T12:03:39;8.60;;;8.10;;
450;SDS011;212;48.748;9.174;2022-07-22T12:06:08;7.37;;;6.83;;
450;SDS011;212;48.748;9.174;2022-07-22T12:08:39;7.00;;;6.60;;
450;SDS011;212;48.748;9.174;2022-07-22T12:11:07;6.93;;;6.53;;
450;SDS011;212;48.748;9.174;2022-07-22T12:13:38;7.37;;;6.97;;
450;SDS011;212;48.748;9.174;2022-07-22T12:16:17;7.13;;;6.73;;
450;SDS011;212;48.748;9.174;2022-07-22T12:18:56;7.07;;;6.67;;
450;SDS011;212;48.748;9.174;2022-07-22T12:21:24;7.10;;;6.70;;
450;SDS011;212;48.748;9.174;2022-07-22T12:23:52;6.73;;;6.33;;
450;SDS011;212;48.748;9.174;2022-07-22T12:26:38;7.23;;;6.83;;
450;SDS011;212;48.748;9.174;2022-07-22T12:29:26;7.80;;;7.40;;
450;SDS011;212;48.748;9.174;2022-07-22T12:31:56;6.97;;;6.57;;
450;SDS011;212;48.748;9.174;2022-07-22T12:34:34;7.30;;;6.70;;
450;SDS011;212;48.748;9.174;2022-07-22T12:37:13;6.73;;;6.33;;
450;SDS011;212;48.748;9.174;2022-07-22T12:39:52;7.00;;;6.60;;
450;SDS011;212;48.748;9.174;2022-07-22T12:42:19;8.20;;;7.57;;
450;SDS011;212;48.748;9.174;2022-07-22T12:44:51;7.60;;;7.20;;
450;SDS011;212;48.748;9.174;2022-07-22T12:50:17;7.47;;;7.07;;
450;SDS011;212;48.748;9.174;2022-07-22T12:52:44;7.40;;;7.00;;
450;SDS011;212;48.748;9.174;2022-07-22T12:55:11;7.00;;;6.60;;
450;SDS011;212;48.748;9.174;2022-07-22T12:57:38;6.93;;;6.50;;
450;SDS011;212;48.748;9.174;2022-07-22T13:00:06;7.77;;;7.37;;
450;SDS011;212;48.748;9.174;2022-07-22T13:02:34;6.97;;;6.57;;
450;SDS011;212;48.748;9.174;2022-07-22T13:05:01;5.53;;;5.23;;
450;SDS011;212;48.748;9.174;2022-07-22T13:07:28;7.50;;;7.10;;
450;SDS011;212;48.748;9.174;2022-07-22T13:09:54;5.90;;;5.60;;
450;SDS011;212;48.748;9.174;2022-07-22T13:12:21;7.77;;;6.63;;
450;SDS011;212;48.748;9.174;2022-07-22T13:14:48;7.10;;;6.70;;
450;SDS011;212;48.748;9.174;2022-07-22T13:17:16;7.30;;;6.90;;
450;SDS011;212;48.748;9.174;2022-07-22T13:19:42;7.50;;;7.10;;
450;SDS011;212;48.748;9.174;2022-07-22T13:22:09;7.53;;;7.13;;
450;SDS011;212;48.748;9.174;2022-07-22T13:24:36;7.47;;;7.07;;
450;SDS011;212;48.748;9.174;2022-07-22T13:27:03;7.13;;;6.73;;
450;SDS011;212;48.748;9.174;2022-07-22T13:29:29;8.00;;;7.60;;
450;SDS011;212;48.748;9.174;2022-07-22T13:31:56;7.40;;;7.00;;
450;SDS011;212;48.748;9.174;2022-07-22T13:34:24;7.47;;;7.07;;
450;SDS011;212;48.748;9.174;2022-07-22T13:36:51;7.20;;;6.80;;
450;SDS011;212;48.748;9.174;2022-07-22T13:39:18;7.57;;;7.00;;
450;SDS011;212;48.748;9.174;2022-07-22T13:41:44;7.47;;;7.07;;
450;SDS011;212;48.748;9.174;2022-07-22T13:44:11;7.53;;;7.13;;
450;SDS011;212;48.748;9.174;2022-07-22T13:46:38;7.57;;;7.17;;
450;SDS011;212;48.748;9.174;2022-07-22T13:49:04;7.27;;;6.87;;
450;SDS011;212;48.748;9.174;2022-07-22T13:51:32;6.97;;;6.57;;
450;SDS011;212;48.748;9.174;2022-07-22T13:53:59;7.83;;;7.43;;
450;SDS011;212;48.748;9.174;2022-07-22T13:56:26;7.33;;;6.97;;
450;SDS011;212;48.748;9.174;2022-07-22T13:58:52;6.57;;;6.17;;
450;SDS011;212;48.748;9.174;2022-07-22T14:01:19;8.10;;;7.70;;
450;SDS011;212;48.748;9.174;2022-07-22T14:03:47;7.37;;;6.97;;
450;SDS011;212;48.748;9.174;2022-07-22T14:06:14;7.20;;;6.80;;
450;SDS011;212;48.748;9.174;2022-07-22T14:08:41;7.83;;;7.43;;
450;SDS011;212;48.748;9.174;2022-07-22T14:11:09;7.20;;;6.80;;
450;SDS011;212;48.748;9.174;2022-07-22T14:13:35;7.00;;;6.50;;
450;SDS011;212;48.748;9.174;2022-07-22T14:16:02;7.93;;;7.53;;
450;SDS011;212;48.748;9.174;2022-07-22T14:18:43;6.90;;;6.50;;
450;SDS011;212;48.748;9.174;2022-07-22T14:21:10;6.70;;;6.30;;
450;SDS011;212;48.748;9.174;2022-07-22T14:23:36;7.70;;;7.30;;
450;SDS011;212;48.748;9.174;2022-07-22T14:26:05;8.10;;;7.70;;
450;SDS011;212;48.748;9.174;2022-07-22T14:28:32;7.10;;;6.70;;
450;SDS011;212;48.748;9.174;2022-07-22T14:30:59;10.70;;;7.37;;
450;SDS011;212;48.748;9.174;2022-07-22T14:33:25;8.83;;;7.30;;
450;SDS011;212;48.748;9.174;2022-07-22T14:35:52;7.10;;;6.70;;
450;SDS011;212;48.748;9.174;2022-07-22T14:38:19;7.00;;;6.60;;
450;SDS011;212;48.748;9.174;2022-07-22T14:40:45;7.60;;;6.93;;
450;SDS011;212;48.748;9.174;2022-07-22T14:43:13;8.33;;;7.90;;
450;SDS011;212;48.748;9.174;2022-07-22T14:45:40;7.67;;;7.27;;
450;SDS011;212;48.748;9.174;2022-07-22T14:48:07;7.73;;;7.33;;
450;SDS011;212;48.748;9.174;2022-07-22T14:50:33;7.73;;;7.33;;
450;SDS011;212;48.748;9.174;2022-07-22T14:53:00;7.70;;;7.30;;
450;SDS011;212;48.748;9.174;2022-07-22T14:55:26;6.90;;;6.50;;
450;SDS011;212;48.748;9.174;2022-07-22T14:57:53;7.40;;;7.00;;
450;SDS011;212;48.748;9.174;2022-07-22T15:00:21;6.93;;;6.53;;
450;SDS011;212;48.748;9.174;2022-07-22T15:02:48;7.73;;;7.33;;
450;SDS011;212;48.748;9.174;2022-07-22T15:05:15;7.30;;;6.90;;
450;SDS011;212;48.748;9.174;2022-07-22T15:07:41;7.00;;;6.60;;
450;SDS011;212;48.748;9.174;2022-07-22T15:10:08;7.60;;;7.20;;
450;SDS011;212;48.748;9.174;2022-07-22T15:12:35;7.90;;;7.50;;
450;SDS011;212;48.748;9.174;2022-07-22T15:15:02;7.87;;;7.47;;
450;SDS011;212;48.748;9.174;2022-07-22T15:17:33;7.83;;;7.43;;
450;SDS011;212;48.748;9.174;2022-07-22T15:20:01;7.53;;;7.13;;
450;SDS011;212;48.748;9.174;2022-07-22T15:22:28;9.40;;;7.47;;
450;SDS011;212;48.748;9.174;2022-07-22T15:24:55;8.43;;;7.97;;
450;SDS011;212;48.748;9.174;2022-07-22T15:27:21;7.57;;;7.17;;
450;SDS011;212;48.748;9.174;2022-07-22T15:29:48;11.07;;;6.10;;
450;SDS011;212;48.748;9.174;2022-07-22T15:32:15;7.47;;;7.07;;
450;SDS011;212;48.748;9.174;2022-07-22T15:34:43;8.17;;;7.77;;
450;SDS011;212;48.748;9.174;2022-07-22T15:37:10;7.37;;;6.90;;
450;SDS011;212;48.748;9.174;2022-07-22T15:39:37;5.90;;;5.60;;
450;SDS011;212;48.748;9.174;2022-07-22T15:42:04;7.23;;;6.83;;
450;SDS011;212;48.748;9.174;2022-07-22T15:44:31;7.33;;;6.90;;
450;SDS011;212;48.748;9.174;2022-07-22T15:46:58;9.17;;;7.73;;
450;SDS011;212;48.748;9.174;2022-07-22T15:49:25;7.50;;;7.10;;
450;SDS011;212;48.748;9.174;2022-07-22T15:51:53;8.90;;;7.43;;